createdAt,value
2018-02-16T00:16:11.957Z,80.4
2018-02-16T00:32:46.562Z,80.0
2018-02-16T00:49:20.629Z,80.0
2018-02-16T01:05:54.944Z,80.0
2018-02-16T01:22:28.322Z,80.4
2018-02-16T01:39:01.920Z,80.4
2018-02-16T01:55:35.798Z,80.4
2018-02-16T02:28:43.918Z,80.4
2018-02-16T02:45:17.445Z,80.4
2018-02-16T03:01:51.400Z,80.4
2018-02-16T03:18:24.953Z,80.4
2018-02-16T03:34:58.539Z,80.4
2018-02-16T03:51:32.367Z,80.4
2018-02-16T04:08:05.734Z,80.4
2018-02-16T04:24:40.801Z,80.4
2018-02-16T04:41:13.585Z,80.4
2018-02-16T04:57:46.745Z,80.4
2018-02-16T05:14:20.390Z,80.0
2018-02-16T05:30:53.762Z,80.0
2018-02-16T05:47:27.754Z,80.0
2018-02-16T06:04:00.965Z,80.0
2018-02-16T06:20:34.453Z,80.0
2018-02-16T06:37:08.625Z,80.0
2018-02-16T06:53:41.857Z,80.0
2018-02-16T07:26:49.090Z,80.4
2018-02-16T07:43:22.221Z,80.4
2018-02-16T07:59:56.172Z,80.4
2018-02-16T08:16:30.095Z,80.4
2018-02-16T08:33:04.177Z,80.8
2018-02-16T08:49:38.638Z,80.4
2018-02-16T09:06:12.616Z,80.8
2018-02-16T09:22:48.342Z,80.4
2018-02-16T09:55:58.152Z,80.4
2018-02-16T10:12:33.889Z,79.6
2018-02-16T10:29:09.825Z,79.6
2018-02-16T10:39:07.432Z,79.6
2018-02-16T10:55:44.188Z,78.8
2018-02-16T11:12:20.508Z,78.4
2018-02-16T11:25:37.389Z,78.4
2018-02-16T11:42:14.331Z,76.8
2018-02-16T12:15:28.037Z,74.8
2018-02-16T12:32:05.653Z,74.0
2018-02-16T12:48:43.430Z,72.4
2018-02-16T13:05:20.946Z,71.2
2018-02-16T13:21:58.828Z,69.6
2018-02-16T13:38:36.447Z,68.8
2018-02-16T13:55:14.158Z,68.4
2018-02-16T14:11:51.875Z,66.4
2018-02-16T14:28:29.803Z,65.6
2018-02-16T14:38:28.536Z,65.2
2018-02-16T14:55:05.913Z,65.2
2018-02-16T15:11:43.422Z,64.4
2018-02-16T15:28:21.346Z,64.4
2018-02-16T15:44:57.758Z,64.8
2018-02-16T16:01:35.193Z,64.0
2018-02-16T16:34:48.255Z,64.8
2018-02-16T16:51:25.315Z,64.8
2018-02-16T17:08:00.866Z,65.6
2018-02-16T17:24:37.014Z,65.6
2018-02-16T17:41:13.885Z,66.0
2018-02-16T17:57:48.783Z,66.4
2018-02-16T18:14:24.448Z,66.8
2018-02-16T18:31:00.205Z,66.4
2018-02-16T18:47:35.896Z,66.8
2018-02-16T19:04:11.420Z,67.2
2018-02-16T19:20:46.745Z,67.2
2018-02-16T19:37:21.787Z,67.6
2018-02-16T19:53:56.834Z,67.2
2018-02-16T20:10:31.996Z,68.0
2018-02-16T20:27:06.981Z,68.0
2018-02-16T20:43:41.542Z,68.4
2018-02-16T21:00:15.963Z,68.4
2018-02-16T21:16:50.226Z,68.8
2018-02-16T21:33:24.497Z,69.2
2018-02-16T21:49:58.685Z,68.8
2018-02-16T22:06:32.661Z,69.2
2018-02-16T22:23:06.369Z,69.6
2018-02-16T22:39:40.003Z,70.0
2018-02-16T22:56:13.707Z,70.0
2018-02-16T23:12:47.284Z,70.0
2018-02-16T23:29:20.658Z,70.4
2018-02-16T23:45:54.013Z,70.4
